createdAt,value
2017-02-01T00:00:09.372Z,21.06
2017-02-01T00:00:29.153Z,21.11
2017-02-01T00:00:49.579Z,21.06
2017-02-01T00:01:09.971Z,21.02
2017-02-01T00:01:30.373Z,20.99
2017-02-01T00:01:50.759Z,20.94
2017-02-01T00:02:10.546Z,21.01
2017-02-01T00:02:30.948Z,20.96
2017-02-01T00:02:51.405Z,21.01
2017-02-01T00:03:11.834Z,20.98
2017-02-01T00:03:31.588Z,20.96
2017-02-01T00:03:52.014Z,20.99
2017-02-01T00:04:12.411Z,20.94
2017-02-01T00:04:32.848Z,20.83
2017-02-01T00:04:53.258Z,20.89
2017-02-01T00:05:13.674Z,20.9
2017-02-01T00:05:34.118Z,20.87
2017-02-01T00:05:53.852Z,20.87
2017-02-01T00:06:13.615Z,20.89
2017-02-01T00:06:34.051Z,20.89
2017-02-01T00:06:54.472Z,20.94
2017-02-01T00:07:14.874Z,20.82
2017-02-01T00:07:35.313Z,20.79
2017-02-01T00:07:55.846Z,20.8
2017-02-01T00:08:15.577Z,20.75
2017-02-01T00:08:35.958Z,20.76
2017-02-01T00:08:56.346Z,20.79
2017-02-01T00:09:16.114Z,20.71
2017-02-01T00:09:36.499Z,20.54
2017-02-01T00:09:56.882Z,20.71
2017-02-01T00:10:17.302Z,20.66
2017-02-01T00:10:37.076Z,20.64
2017-02-01T00:10:57.469Z,20.62
2017-02-01T00:11:17.880Z,20.61
2017-02-01T00:11:38.320Z,20.66
2017-02-01T00:11:58.753Z,20.61
2017-02-01T00:12:18.519Z,20.62
2017-02-01T00:12:38.925Z,20.65
2017-02-01T00:12:59.370Z,20.66
2017-02-01T00:13:20.141Z,20.61
2017-02-01T00:13:40.142Z,20.65
2017-02-01T00:14:00.556Z,20.57
2017-02-01T00:14:20.965Z,20.65
2017-02-01T00:14:41.374Z,20.64
2017-02-01T00:15:01.801Z,20.66
2017-02-01T00:15:22.183Z,20.65
2017-02-01T00:15:42.565Z,20.66
2017-02-01T00:16:02.967Z,20.62
2017-02-01T00:16:23.418Z,20.65
2017-02-01T00:16:43.833Z,20.62
2017-02-01T00:17:04.254Z,20.42
2017-02-01T00:17:24.625Z,20.54
2017-02-01T00:17:44.364Z,20.53
2017-02-01T00:18:04.784Z,20.53
2017-02-01T00:18:25.207Z,20.49
2017-02-01T00:18:45.658Z,20.37
2017-02-01T00:19:06.107Z,20.35
2017-02-01T00:19:26.509Z,20.46
2017-02-01T00:19:46.916Z,20.42
2017-02-01T00:20:07.290Z,20.49
2017-02-01T00:20:27.708Z,20.46
2017-02-01T00:20:48.152Z,20.46
2017-02-01T00:21:08.565Z,20.46
2017-02-01T00:21:28.948Z,20.38
2017-02-01T00:21:48.712Z,20.38
2017-02-01T00:22:09.109Z,20.43
2017-02-01T00:22:28.860Z,20.33
2017-02-01T00:22:47.973Z,20.4
2017-02-01T00:23:08.367Z,20.31
2017-02-01T00:23:28.740Z,20.35
2017-02-01T00:23:49.134Z,20.26
2017-02-01T00:24:09.556Z,20.2
2017-02-01T00:24:29.937Z,20.12
2017-02-01T00:24:50.333Z,20.16
2017-02-01T00:25:10.120Z,20.09
2017-02-01T00:25:30.514Z,20.06
2017-02-01T00:25:50.932Z,20.08
2017-02-01T00:26:11.339Z,20.05
2017-02-01T00:26:31.709Z,19.97
2017-02-01T00:26:52.089Z,19.93
2017-02-01T00:27:12.547Z,19.9
2017-02-01T00:27:32.933Z,20
2017-02-01T00:27:53.338Z,19.83
2017-02-01T00:28:13.078Z,19.91
2017-02-01T00:28:33.550Z,19.9
2017-02-01T00:28:53.955Z,19.94
2017-02-01T00:29:13.759Z,19.97
2017-02-01T00:29:34.171Z,19.9
2017-02-01T00:29:54.994Z,19.93
2017-02-01T00:30:15.413Z,19.8
2017-02-01T00:30:35.806Z,19.88
2017-02-01T00:30:56.209Z,19.93
2017-02-01T00:31:16.638Z,19.86
2017-02-01T00:31:37.028Z,19.83
2017-02-01T00:31:56.779Z,19.79
2017-02-01T00:32:17.221Z,19.88
2017-02-01T00:32:37.669Z,19.9
2017-02-01T00:32:58.183Z,19.87
2017-02-01T00:33:18.579Z,19.87
2017-02-01T00:33:39.018Z,19.91
2017-02-01T00:33:59.480Z,19.9
2017-02-01T00:34:19.894Z,19.9
2017-02-01T00:34:40.291Z,19.9
2017-02-01T00:35:00.728Z,19.95
2017-02-01T00:35:21.018Z,19.88
2017-02-01T00:35:41.443Z,19.88
2017-02-01T00:36:01.863Z,19.91
2017-02-01T00:36:22.278Z,19.88
2017-02-01T00:36:42.683Z,19.86
2017-02-01T00:37:03.080Z,19.93
2017-02-01T00:37:23.511Z,19.93
2017-02-01T00:37:43.927Z,19.91
2017-02-01T00:38:04.318Z,19.88
2017-02-01T00:38:24.710Z,19.88
2017-02-01T00:38:45.111Z,19.95
2017-02-01T00:39:05.512Z,19.87
2017-02-01T00:39:25.909Z,19.91
2017-02-01T00:39:46.295Z,19.87
2017-02-01T00:40:06.927Z,19.9
2017-02-01T00:40:26.647Z,19.88
2017-02-01T00:40:47.096Z,19.91
2017-02-01T00:41:07.503Z,19.87
2017-02-01T00:41:28.532Z,19.88
2017-02-01T00:41:48.952Z,19.9
2017-02-01T00:42:09.353Z,19.95
2017-02-01T00:42:29.760Z,19.91
2017-02-01T00:42:50.178Z,19.93
2017-02-01T00:43:10.595Z,19.83
2017-02-01T00:43:31.585Z,19.87
2017-02-01T00:43:52.002Z,19.88
2017-02-01T00:44:12.385Z,19.87
2017-02-01T00:44:32.780Z,19.9
2017-02-01T00:44:53.188Z,19.94
2017-02-01T00:45:13.589Z,19.88
2017-02-01T00:45:34.009Z,19.88
2017-02-01T00:45:54.385Z,19.9
2017-02-01T00:46:14.125Z,19.97
2017-02-01T00:46:34.516Z,20.03
2017-02-01T00:46:54.931Z,19.98
2017-02-01T00:47:15.308Z,20.06
2017-02-01T00:47:35.044Z,20.03
2017-02-01T00:47:55.453Z,20.12
2017-02-01T00:48:14.586Z,20.06
2017-02-01T00:48:35.000Z,20.03
2017-02-01T00:48:55.433Z,20.05
2017-02-01T00:49:15.169Z,20.06
2017-02-01T00:49:35.598Z,20.09
2017-02-01T00:49:56.042Z,20
2017-02-01T00:50:16.446Z,20.12
2017-02-01T00:50:36.859Z,20.1
2017-02-01T00:50:57.268Z,20.05
2017-02-01T00:51:17.650Z,20.1
2017-02-01T00:51:38.081Z,20.1
2017-02-01T00:51:57.837Z,20.09
2017-02-01T00:52:18.234Z,20.18
2017-02-01T00:52:38.635Z,20.1
2017-02-01T00:52:59.052Z,20.15
2017-02-01T00:53:19.483Z,20.27
2017-02-01T00:53:39.940Z,20.19
2017-02-01T00:54:00.849Z,20.28
2017-02-01T00:54:20.674Z,20.18
2017-02-01T00:54:41.099Z,20.24
2017-02-01T00:55:01.510Z,20.3
2017-02-01T00:55:20.687Z,20.27
2017-02-01T00:55:41.106Z,20.28
2017-02-01T00:56:01.550Z,20.28
2017-02-01T00:56:21.982Z,20.34
2017-02-01T00:56:42.436Z,20.31
2017-02-01T00:57:02.846Z,20.33
2017-02-01T00:57:23.239Z,20.33
2017-02-01T00:57:43.680Z,20.38
2017-02-01T00:58:04.094Z,20.3
2017-02-01T00:58:24.541Z,20.4
2017-02-01T00:58:44.966Z,20.43
2017-02-01T00:59:05.361Z,20.35
2017-02-01T00:59:25.815Z,20.38
2017-02-01T00:59:46.228Z,20.43
2017-02-01T01:00:06.621Z,20.5
2017-02-01T01:00:26.416Z,20.38
2017-02-01T01:00:46.878Z,20.47
2017-02-01T01:01:07.278Z,20.46
2017-02-01T01:01:27.824Z,20.42
2017-02-01T01:01:48.332Z,20.35
2017-02-01T01:02:08.780Z,20.42
2017-02-01T01:02:29.228Z,20.43
2017-02-01T01:02:49.654Z,20.47
2017-02-01T01:03:10.069Z,20.34
2017-02-01T01:03:30.464Z,20.33
2017-02-01T01:03:50.877Z,20.33
2017-02-01T01:04:11.369Z,20.31
2017-02-01T01:04:31.860Z,20.33
2017-02-01T01:04:51.638Z,20.28
2017-02-01T01:05:12.005Z,20.31
2017-02-01T01:05:32.425Z,20.18
2017-02-01T01:05:52.877Z,20.3
2017-02-01T01:06:13.273Z,20.28
2017-02-01T01:06:33.033Z,20.28
2017-02-01T01:06:52.803Z,20.28
2017-02-01T01:07:13.216Z,20.19
2017-02-01T01:07:33.033Z,20.2
2017-02-01T01:07:53.421Z,20.24
2017-02-01T01:08:13.851Z,20.2
2017-02-01T01:08:34.248Z,20.3
2017-02-01T01:08:54.671Z,20.31
2017-02-01T01:09:14.470Z,20.26
2017-02-01T01:09:34.897Z,20.27
2017-02-01T01:09:55.261Z,20.18
2017-02-01T01:10:15.649Z,20.27
2017-02-01T01:10:36.060Z,20.18
2017-02-01T01:10:56.476Z,20.27
2017-02-01T01:11:16.845Z,20.2
2017-02-01T01:11:37.343Z,20.26
2017-02-01T01:11:57.852Z,20.16
2017-02-01T01:12:18.254Z,20.2
2017-02-01T01:12:38.668Z,20.3
2017-02-01T01:12:59.090Z,20.13
2017-02-01T01:13:19.499Z,20.26
2017-02-01T01:13:39.880Z,20.18
2017-02-01T01:13:59.651Z,20.27
2017-02-01T01:14:20.039Z,20.3
2017-02-01T01:14:40.456Z,20.18
2017-02-01T01:15:00.844Z,20.15
2017-02-01T01:15:21.244Z,20.27
2017-02-01T01:15:41.640Z,20.23
2017-02-01T01:16:02.102Z,20.19
2017-02-01T01:16:22.525Z,20.26
2017-02-01T01:16:42.255Z,20.27
2017-02-01T01:17:02.667Z,20.28
2017-02-01T01:17:23.087Z,20.28
2017-02-01T01:17:43.502Z,20.27
2017-02-01T01:18:03.883Z,20.24
2017-02-01T01:18:24.311Z,20.27
2017-02-01T01:18:44.689Z,20.26
2017-02-01T01:19:05.081Z,20.27
2017-02-01T01:19:25.456Z,20.23
2017-02-01T01:19:45.839Z,20.19
2017-02-01T01:20:05.819Z,20.28
2017-02-01T01:20:26.219Z,20.3
2017-02-01T01:20:46.700Z,20.2
2017-02-01T01:21:07.192Z,20.28
2017-02-01T01:21:27.633Z,20.28
2017-02-01T01:21:47.537Z,20.23
2017-02-01T01:22:07.976Z,20.24
2017-02-01T01:22:28.381Z,20.27
2017-02-01T01:22:48.803Z,20.31
2017-02-01T01:23:08.550Z,20.3
2017-02-01T01:23:29.448Z,20.35
2017-02-01T01:23:49.835Z,20.26
2017-02-01T01:24:09.616Z,20.33
2017-02-01T01:24:30.008Z,20.28
2017-02-01T01:24:50.436Z,20.31
2017-02-01T01:25:10.876Z,20.37
2017-02-01T01:25:31.301Z,20.33
2017-02-01T01:25:51.659Z,20.3
2017-02-01T01:26:11.388Z,20.31
2017-02-01T01:26:31.833Z,20.27
2017-02-01T01:26:52.266Z,20.31
2017-02-01T01:27:12.819Z,20.28
2017-02-01T01:27:33.224Z,20.3
2017-02-01T01:27:53.765Z,20.27
2017-02-01T01:28:13.502Z,20.28
2017-02-01T01:28:33.881Z,20.33
2017-02-01T01:28:54.239Z,20.28
2017-02-01T01:29:14.713Z,20.33
2017-02-01T01:29:34.536Z,20.34
2017-02-01T01:29:54.930Z,20.31
2017-02-01T01:30:15.400Z,20.31
2017-02-01T01:30:35.798Z,20.28
2017-02-01T01:30:56.171Z,20.3
2017-02-01T01:31:16.574Z,20.35
2017-02-01T01:31:37.027Z,20.42
2017-02-01T01:31:57.396Z,20.37
2017-02-01T01:32:16.506Z,20.31
2017-02-01T01:32:36.887Z,20.34
2017-02-01T01:32:57.340Z,20.42
2017-02-01T01:33:17.764Z,20.34
2017-02-01T01:33:38.193Z,20.38
2017-02-01T01:33:58.662Z,20.43
2017-02-01T01:34:19.122Z,20.4
2017-02-01T01:34:39.501Z,20.53
2017-02-01T01:34:59.914Z,20.5
2017-02-01T01:35:20.311Z,20.49
2017-02-01T01:35:40.695Z,20.4
2017-02-01T01:36:01.093Z,20.46
2017-02-01T01:36:20.854Z,20.51
2017-02-01T01:36:40.713Z,20.42
2017-02-01T01:37:01.104Z,20.35
2017-02-01T01:37:21.011Z,20.37
2017-02-01T01:37:41.423Z,20.4
2017-02-01T01:38:01.892Z,20.33
2017-02-01T01:38:22.331Z,20.4
2017-02-01T01:38:42.128Z,20.34
2017-02-01T01:39:02.568Z,20.37
2017-02-01T01:39:23.012Z,20.42
2017-02-01T01:39:43.412Z,20.34
2017-02-01T01:40:03.826Z,20.43
2017-02-01T01:40:23.609Z,20.35
2017-02-01T01:40:44.011Z,20.27
2017-02-01T01:41:04.429Z,20.37
2017-02-01T01:41:25.153Z,20.28
2017-02-01T01:41:46.281Z,20.35
2017-02-01T01:42:06.807Z,20.31
2017-02-01T01:42:27.230Z,20.28
2017-02-01T01:42:47.605Z,20.26
2017-02-01T01:43:08.020Z,20.31
2017-02-01T01:43:27.782Z,20.27
2017-02-01T01:43:48.209Z,20.2
2017-02-01T01:44:08.599Z,20.27
2017-02-01T01:44:28.351Z,20.31
2017-02-01T01:44:48.700Z,20.33
2017-02-01T01:45:09.296Z,20.3
2017-02-01T01:45:29.063Z,20.34
2017-02-01T01:45:49.476Z,20.33
2017-02-01T01:46:09.868Z,20.31
2017-02-01T01:46:30.266Z,20.31
2017-02-01T01:46:50.675Z,20.27
2017-02-01T01:47:11.082Z,20.26
2017-02-01T01:47:31.461Z,20.3
2017-02-01T01:47:51.887Z,20.33
2017-02-01T01:48:12.301Z,20.24
2017-02-01T01:48:32.673Z,20.28
2017-02-01T01:48:53.133Z,20.28
2017-02-01T01:49:13.535Z,20.35
2017-02-01T01:49:33.918Z,20.28
2017-02-01T01:49:53.669Z,20.3
2017-02-01T01:50:14.369Z,20.26
2017-02-01T01:50:34.154Z,20.28
2017-02-01T01:50:54.640Z,20.31
2017-02-01T01:51:14.391Z,20.33
2017-02-01T01:51:34.814Z,20.33
2017-02-01T01:51:55.241Z,20.33
2017-02-01T01:52:15.669Z,20.34
2017-02-01T01:52:36.179Z,20.4
2017-02-01T01:52:55.951Z,20.28
2017-02-01T01:53:16.330Z,20.31
2017-02-01T01:53:36.711Z,20.27
2017-02-01T01:53:57.150Z,20.27
2017-02-01T01:54:17.540Z,20.3
2017-02-01T01:54:37.948Z,20.27
2017-02-01T01:54:58.364Z,20.33
2017-02-01T01:55:18.117Z,20.33
2017-02-01T01:55:38.543Z,20.27
2017-02-01T01:55:58.934Z,20.42
2017-02-01T01:56:19.328Z,20.3
2017-02-01T01:56:39.791Z,20.34
2017-02-01T01:57:00.229Z,20.4
2017-02-01T01:57:20.635Z,20.38
2017-02-01T01:57:40.375Z,20.34
2017-02-01T01:58:00.798Z,20.4
2017-02-01T01:58:20.545Z,20.34
2017-02-01T01:58:40.309Z,20.38
2017-02-01T01:59:00.666Z,20.43
2017-02-01T01:59:21.027Z,20.38
2017-02-01T01:59:41.442Z,20.4
2017-02-01T02:00:01.865Z,20.33
2017-02-01T02:00:21.621Z,20.35
2017-02-01T02:00:42.003Z,20.38
2017-02-01T02:01:02.388Z,20.31
2017-02-01T02:01:22.147Z,20.38
2017-02-01T02:01:42.538Z,20.35
2017-02-01T02:02:02.913Z,20.35
2017-02-01T02:02:22.632Z,20.4
2017-02-01T02:02:43.053Z,20.37
2017-02-01T02:03:03.435Z,20.31
2017-02-01T02:03:23.791Z,20.24
2017-02-01T02:03:44.229Z,20.28
2017-02-01T02:04:04.611Z,20.28
2017-02-01T02:04:25.042Z,20.34
2017-02-01T02:04:45.452Z,20.28
2017-02-01T02:05:05.188Z,20.28
2017-02-01T02:05:25.568Z,20.34
2017-02-01T02:05:45.974Z,20.35
2017-02-01T02:06:06.377Z,20.31
2017-02-01T02:06:26.787Z,20.3
2017-02-01T02:06:47.194Z,20.31
2017-02-01T02:07:07.608Z,20.28
2017-02-01T02:07:27.384Z,20.3
2017-02-01T02:07:47.798Z,20.35
2017-02-01T02:08:08.193Z,20.3
2017-02-01T02:08:28.580Z,20.27
2017-02-01T02:08:48.975Z,20.3
2017-02-01T02:09:09.435Z,20.3
2017-02-01T02:09:29.212Z,20.24
2017-02-01T02:09:49.665Z,20.28
2017-02-01T02:10:10.106Z,20.16
2017-02-01T02:10:30.492Z,20.31
2017-02-01T02:10:50.900Z,20.16
2017-02-01T02:11:10.676Z,20.23
2017-02-01T02:11:31.092Z,20.27
2017-02-01T02:11:51.513Z,20.27
2017-02-01T02:12:11.937Z,20.2
2017-02-01T02:12:31.774Z,20.26
2017-02-01T02:12:52.156Z,20.3
2017-02-01T02:13:12.547Z,20.24
2017-02-01T02:13:32.941Z,20.18
2017-02-01T02:13:53.311Z,20.31
2017-02-01T02:14:13.715Z,20.3
2017-02-01T02:14:34.098Z,20.18
2017-02-01T02:14:54.527Z,20.24
2017-02-01T02:15:14.939Z,20.34
2017-02-01T02:15:34.683Z,20.28
2017-02-01T02:15:55.036Z,20.31
2017-02-01T02:16:15.459Z,20.26
2017-02-01T02:16:35.843Z,20.28
2017-02-01T02:16:56.235Z,20.37
2017-02-01T02:17:16.648Z,20.27
2017-02-01T02:17:36.405Z,20.35
2017-02-01T02:17:56.809Z,20.35
2017-02-01T02:18:17.281Z,20.28
2017-02-01T02:18:37.684Z,20.37
2017-02-01T02:18:58.101Z,20.38
2017-02-01T02:19:18.517Z,20.38
2017-02-01T02:19:38.934Z,20.4
2017-02-01T02:19:59.354Z,20.35
2017-02-01T02:20:19.725Z,20.4
2017-02-01T02:20:40.113Z,20.43
2017-02-01T02:21:00.514Z,20.35
2017-02-01T02:21:20.863Z,20.38
2017-02-01T02:21:41.267Z,20.37
2017-02-01T02:22:01.624Z,20.46
2017-02-01T02:22:22.009Z,20.28
2017-02-01T02:22:42.392Z,20.35
2017-02-01T02:23:02.773Z,20.35
2017-02-01T02:23:23.123Z,20.33
2017-02-01T02:23:43.471Z,20.4
2017-02-01T02:24:03.852Z,20.37
2017-02-01T02:24:24.202Z,20.49
2017-02-01T02:24:44.571Z,20.43
2017-02-01T02:25:04.954Z,20.37
2017-02-01T02:25:25.321Z,20.42
2017-02-01T02:25:45.669Z,20.37
2017-02-01T02:26:06.028Z,20.35
2017-02-01T02:26:26.437Z,20.38
2017-02-01T02:26:46.803Z,20.35
2017-02-01T02:27:07.179Z,20.37
2017-02-01T02:27:27.542Z,20.38
2017-02-01T02:27:47.906Z,20.35
2017-02-01T02:28:08.275Z,20.35
2017-02-01T02:28:28.633Z,20.47
2017-02-01T02:28:49.045Z,20.5
2017-02-01T02:29:09.387Z,20.42
2017-02-01T02:29:29.734Z,20.57
2017-02-01T02:29:50.103Z,20.59
2017-02-01T02:30:10.481Z,20.56
2017-02-01T02:30:30.881Z,20.54
2017-02-01T02:30:51.260Z,20.43
2017-02-01T02:31:11.624Z,20.46
2017-02-01T02:31:31.988Z,20.51
2017-02-01T02:31:52.376Z,20.61
2017-02-01T02:32:12.749Z,20.56
2017-02-01T02:32:33.125Z,20.62
2017-02-01T02:32:52.878Z,20.68
2017-02-01T02:33:13.228Z,20.72
2017-02-01T02:33:33.595Z,20.62
2017-02-01T02:33:53.969Z,20.66
2017-02-01T02:34:14.330Z,20.72
2017-02-01T02:34:34.681Z,20.74
2017-02-01T02:34:55.066Z,20.76
2017-02-01T02:35:15.409Z,20.72
2017-02-01T02:35:35.801Z,20.82
2017-02-01T02:35:56.183Z,20.86
2017-02-01T02:36:16.555Z,20.8
2017-02-01T02:36:36.930Z,20.8
2017-02-01T02:36:57.285Z,20.8
2017-02-01T02:37:17.659Z,20.8
2017-02-01T02:37:38.047Z,20.75
2017-02-01T02:37:58.437Z,20.83
2017-02-01T02:38:18.809Z,20.89
2017-02-01T02:38:39.190Z,20.8
2017-02-01T02:38:59.572Z,20.76
2017-02-01T02:39:19.394Z,20.75
2017-02-01T02:39:39.757Z,20.79
2017-02-01T02:40:00.132Z,20.87
2017-02-01T02:40:34.258Z,20.84
2017-02-01T02:40:54.640Z,20.86
2017-02-01T02:41:15.056Z,20.75
2017-02-01T02:41:35.411Z,20.79
2017-02-01T02:41:55.789Z,20.82
2017-02-01T02:42:16.173Z,20.83
2017-02-01T02:42:36.541Z,20.86
2017-02-01T02:42:56.913Z,20.68
2017-02-01T02:43:17.270Z,20.8
2017-02-01T02:43:37.635Z,20.8
2017-02-01T02:43:57.985Z,20.72
2017-02-01T02:44:18.347Z,20.79
2017-02-01T02:44:38.755Z,20.79
2017-02-01T02:44:59.156Z,20.8
2017-02-01T02:45:19.537Z,20.75
2017-02-01T02:45:39.920Z,20.72
2017-02-01T02:46:00.305Z,20.75
2017-02-01T02:46:20.725Z,20.82
2017-02-01T02:46:41.093Z,20.75
2017-02-01T02:47:01.481Z,20.82
2017-02-01T02:47:21.211Z,20.82
2017-02-01T02:47:41.873Z,20.74
2017-02-01T02:48:04.795Z,20.75
2017-02-01T02:48:24.491Z,20.82
2017-02-01T02:48:44.834Z,20.75
2017-02-01T02:49:05.162Z,20.71
2017-02-01T02:49:25.544Z,20.79
2017-02-01T02:49:45.948Z,20.74
2017-02-01T02:50:05.721Z,20.72
2017-02-01T02:50:26.106Z,20.74
2017-02-01T02:50:46.473Z,20.71
2017-02-01T02:51:06.890Z,20.72
2017-02-01T02:51:27.257Z,20.8
2017-02-01T02:51:47.015Z,20.76
2017-02-01T02:52:07.383Z,20.72
2017-02-01T02:52:27.744Z,20.72
2017-02-01T02:52:48.141Z,20.82
2017-02-01T02:53:08.501Z,20.8
2017-02-01T02:53:28.887Z,20.72
2017-02-01T02:53:48.610Z,20.82
2017-02-01T02:54:09.051Z,20.8
2017-02-01T02:54:29.472Z,20.8
2017-02-01T02:54:49.900Z,20.8
2017-02-01T02:55:10.316Z,20.84
2017-02-01T02:55:30.710Z,20.82
2017-02-01T02:55:51.100Z,20.86
2017-02-01T02:56:10.818Z,20.87
2017-02-01T02:56:31.198Z,20.83
2017-02-01T02:56:51.598Z,20.87
2017-02-01T02:57:12.016Z,20.87
2017-02-01T02:57:32.419Z,20.96
2017-02-01T02:57:52.857Z,20.84
2017-02-01T02:58:11.996Z,20.86
2017-02-01T02:58:32.386Z,20.94
2017-02-01T02:58:52.820Z,20.89
2017-02-01T02:59:13.253Z,20.82
2017-02-01T02:59:33.669Z,20.83
2017-02-01T02:59:54.064Z,20.83
2017-02-01T03:00:13.795Z,20.8
2017-02-01T03:00:34.195Z,20.87
2017-02-01T03:00:56.025Z,20.84
2017-02-01T03:01:16.446Z,20.87
2017-02-01T03:01:36.845Z,20.83
2017-02-01T03:01:57.273Z,20.79
2017-02-01T03:02:17.700Z,20.82
2017-02-01T03:02:38.122Z,20.82
2017-02-01T03:02:57.869Z,20.87
2017-02-01T03:03:18.296Z,20.89
2017-02-01T03:03:38.720Z,20.86
2017-02-01T03:03:59.146Z,20.98
2017-02-01T03:04:19.548Z,20.87
2017-02-01T03:04:39.999Z,20.82
2017-02-01T03:05:00.478Z,20.86
2017-02-01T03:05:20.875Z,20.91
2017-02-01T03:05:41.286Z,20.91
2017-02-01T03:06:01.702Z,20.96
2017-02-01T03:06:21.450Z,20.99
2017-02-01T03:06:41.830Z,20.94
2017-02-01T03:07:02.264Z,20.9
2017-02-01T03:07:22.679Z,20.9
2017-02-01T03:07:42.461Z,20.87
2017-02-01T03:08:02.861Z,20.93
2017-02-01T03:08:23.268Z,20.9
2017-02-01T03:08:43.671Z,20.9
2017-02-01T03:09:04.058Z,20.98
2017-02-01T03:09:24.444Z,20.93
2017-02-01T03:09:44.869Z,20.93
2017-02-01T03:10:05.258Z,20.94
2017-02-01T03:10:25.630Z,20.93
2017-02-01T03:10:45.437Z,20.93
2017-02-01T03:11:05.838Z,20.96
2017-02-01T03:11:25.608Z,20.93
2017-02-01T03:11:46.060Z,21.01
2017-02-01T03:12:06.484Z,21.01
2017-02-01T03:12:26.875Z,20.99
2017-02-01T03:12:47.285Z,21.05
2017-02-01T03:13:07.694Z,21.02
2017-02-01T03:13:28.081Z,21.01
2017-02-01T03:13:48.480Z,21.09
2017-02-01T03:14:08.846Z,20.99
2017-02-01T03:14:29.240Z,20.98
2017-02-01T03:14:49.621Z,21.09
2017-02-01T03:15:10.022Z,20.93
2017-02-01T03:15:30.390Z,21.01
2017-02-01T03:15:50.760Z,21.02
2017-02-01T03:16:10.506Z,20.96
2017-02-01T03:16:30.257Z,20.98
2017-02-01T03:16:50.695Z,20.96
2017-02-01T03:17:10.463Z,21.01
2017-02-01T03:17:30.877Z,21.01
2017-02-01T03:17:51.284Z,21.01
2017-02-01T03:18:11.698Z,21.01
2017-02-01T03:18:32.097Z,21.02
2017-02-01T03:18:52.487Z,20.96
2017-02-01T03:19:12.844Z,21.01
2017-02-01T03:19:33.279Z,21.11
2017-02-01T03:19:53.696Z,21.05
2017-02-01T03:20:14.102Z,21.01
2017-02-01T03:20:34.536Z,21.11
2017-02-01T03:20:54.931Z,21.06
2017-02-01T03:21:15.316Z,21.12
2017-02-01T03:21:35.730Z,20.96
2017-02-01T03:21:56.112Z,21.01
2017-02-01T03:22:16.528Z,21.05
2017-02-01T03:22:36.567Z,21.11
2017-02-01T03:22:56.961Z,21.05
2017-02-01T03:23:17.388Z,21.08
2017-02-01T03:23:37.827Z,21.19
2017-02-01T03:23:58.222Z,21.09
2017-02-01T03:24:17.973Z,21.16
2017-02-01T03:24:38.351Z,21.04
2017-02-01T03:24:58.767Z,21.06
2017-02-01T03:25:19.188Z,21.01
2017-02-01T03:25:39.581Z,20.99
2017-02-01T03:25:59.985Z,21.08
2017-02-01T03:26:20.370Z,21.02
2017-02-01T03:26:39.508Z,20.99
2017-02-01T03:26:59.936Z,21.06
2017-02-01T03:27:20.328Z,21.09
2017-02-01T03:27:40.762Z,21.06
2017-02-01T03:28:01.183Z,20.99
2017-02-01T03:28:20.959Z,21.14
2017-02-01T03:28:41.349Z,21.04
2017-02-01T03:29:01.774Z,21.08
2017-02-01T03:29:22.199Z,21.01
2017-02-01T03:29:42.630Z,21.06
2017-02-01T03:30:03.035Z,21.05
2017-02-01T03:30:23.429Z,21.16
2017-02-01T03:30:43.840Z,21.09
2017-02-01T03:31:04.253Z,21.08
2017-02-01T03:31:24.674Z,21.16
2017-02-01T03:31:45.113Z,21.11
2017-02-01T03:32:05.537Z,21.21
2017-02-01T03:32:25.285Z,21.21
2017-02-01T03:32:45.722Z,21.12
2017-02-01T03:33:06.139Z,21.23
2017-02-01T03:33:26.556Z,21.21
2017-02-01T03:33:46.966Z,21.21
2017-02-01T03:34:07.368Z,21.23
2017-02-01T03:34:25.837Z,21.23
2017-02-01T03:34:46.219Z,21.19
2017-02-01T03:35:06.647Z,21.23
2017-02-01T03:35:26.454Z,21.12
2017-02-01T03:35:47.319Z,21.06
2017-02-01T03:36:07.727Z,21.14
2017-02-01T03:36:27.434Z,21.09
2017-02-01T03:36:47.791Z,21.21
2017-02-01T03:37:08.150Z,21.06
2017-02-01T03:37:28.521Z,21.14
2017-02-01T03:37:49.517Z,21.09
2017-02-01T03:38:09.863Z,21.19
2017-02-01T03:38:30.265Z,21.02
2017-02-01T03:38:50.004Z,21.17
2017-02-01T03:39:10.386Z,21.11
2017-02-01T03:39:30.784Z,21.17
2017-02-01T03:39:51.193Z,21.09
2017-02-01T03:40:10.948Z,21.06
2017-02-01T03:40:31.326Z,21.11
2017-02-01T03:40:51.725Z,21.08
2017-02-01T03:41:12.084Z,21.04
2017-02-01T03:41:31.821Z,21.01
2017-02-01T03:41:52.218Z,21.01
2017-02-01T03:42:12.651Z,21.05
2017-02-01T03:42:33.061Z,21.12
2017-02-01T03:42:53.432Z,21.17
2017-02-01T03:43:13.834Z,21.11
2017-02-01T03:43:34.221Z,21.09
2017-02-01T03:43:54.620Z,21.19
2017-02-01T03:44:14.342Z,21.11
2017-02-01T03:44:34.113Z,21.14
2017-02-01T03:44:54.541Z,21.11
2017-02-01T03:45:14.960Z,21.11
2017-02-01T03:45:35.363Z,21.06
2017-02-01T03:45:55.772Z,21.05
2017-02-01T03:46:16.184Z,21.01
2017-02-01T03:46:36.593Z,21.04
2017-02-01T03:46:57.000Z,20.9
2017-02-01T03:47:17.408Z,20.94
2017-02-01T03:47:37.752Z,20.86
2017-02-01T03:47:58.173Z,20.87
2017-02-01T03:48:18.589Z,20.87
2017-02-01T03:48:39.017Z,20.83
2017-02-01T03:48:59.394Z,20.87
2017-02-01T03:49:19.803Z,20.86
2017-02-01T03:49:40.177Z,20.9
2017-02-01T03:50:00.567Z,20.87
2017-02-01T03:50:21.205Z,20.87
2017-02-01T03:50:41.598Z,20.87
2017-02-01T03:51:02.044Z,20.87
2017-02-01T03:51:22.456Z,20.9
2017-02-01T03:51:42.835Z,20.9
2017-02-01T03:52:03.267Z,20.96
2017-02-01T03:52:23.845Z,20.94
2017-02-01T03:52:44.240Z,20.93
2017-02-01T03:53:04.630Z,20.96
2017-02-01T03:53:25.045Z,20.93
2017-02-01T03:53:45.446Z,20.93
2017-02-01T03:54:05.200Z,20.86
2017-02-01T03:54:24.957Z,21.01
2017-02-01T03:54:45.360Z,20.94
2017-02-01T03:55:05.788Z,20.96
2017-02-01T03:55:26.196Z,20.96
2017-02-01T03:55:46.610Z,20.98
2017-02-01T03:56:06.990Z,20.98
2017-02-01T03:56:26.740Z,21.02
2017-02-01T03:56:47.107Z,20.99
2017-02-01T03:57:07.452Z,20.99
2017-02-01T03:57:27.858Z,20.94
2017-02-01T03:57:48.274Z,20.96
2017-02-01T03:58:08.050Z,20.96
2017-02-01T03:58:27.779Z,20.98
2017-02-01T03:58:48.174Z,20.98
2017-02-01T03:59:08.555Z,20.89
2017-02-01T03:59:28.324Z,20.93
2017-02-01T03:59:48.731Z,20.99
2017-02-01T04:00:09.149Z,20.98
2017-02-01T04:00:29.536Z,21.06
2017-02-01T04:00:49.955Z,21.01
2017-02-01T04:01:10.324Z,21.01
2017-02-01T04:01:30.705Z,20.96
2017-02-01T04:01:51.145Z,21.01
2017-02-01T04:02:11.558Z,21.01
2017-02-01T04:02:32.002Z,20.96
2017-02-01T04:02:52.421Z,20.96
2017-02-01T04:03:12.811Z,21.04
2017-02-01T04:03:33.219Z,20.98
2017-02-01T04:03:53.632Z,20.93
2017-02-01T04:04:13.409Z,20.91
2017-02-01T04:04:33.190Z,21.01
2017-02-01T04:04:53.559Z,20.99
2017-02-01T04:05:13.907Z,20.91
2017-02-01T04:05:34.275Z,20.93
2017-02-01T04:05:54.649Z,21.02
2017-02-01T04:06:15.087Z,21.09
2017-02-01T04:06:34.815Z,21.01
2017-02-01T04:06:55.209Z,20.98
2017-02-01T04:07:15.574Z,20.99
2017-02-01T04:07:34.663Z,21.01
2017-02-01T04:07:55.058Z,20.99
2017-02-01T04:08:17.285Z,21.04
2017-02-01T04:08:39.519Z,20.98
2017-02-01T04:08:59.921Z,20.99
2017-02-01T04:09:20.340Z,21.04
2017-02-01T04:09:40.081Z,21.01
2017-02-01T04:10:00.490Z,21.04
2017-02-01T04:10:20.277Z,20.9
2017-02-01T04:10:40.700Z,20.94
2017-02-01T04:11:01.087Z,20.93
2017-02-01T04:11:21.478Z,20.91
2017-02-01T04:11:41.849Z,20.83
2017-02-01T04:12:02.293Z,20.91
2017-02-01T04:12:22.035Z,20.89
2017-02-01T04:12:42.431Z,20.86
2017-02-01T04:13:02.824Z,20.9
2017-02-01T04:13:23.238Z,20.93
2017-02-01T04:13:43.635Z,20.98
2017-02-01T04:14:04.052Z,20.91
2017-02-01T04:14:24.436Z,20.89
2017-02-01T04:14:44.852Z,20.93
2017-02-01T04:15:05.222Z,20.91
2017-02-01T04:15:25.581Z,20.99
2017-02-01T04:15:45.356Z,20.96
2017-02-01T04:16:05.730Z,20.86
2017-02-01T04:16:26.145Z,20.94
2017-02-01T04:16:46.549Z,20.98
2017-02-01T04:17:06.931Z,21.01
2017-02-01T04:17:27.356Z,20.98
2017-02-01T04:17:47.754Z,21.01
2017-02-01T04:18:08.154Z,21.04
2017-02-01T04:18:28.592Z,21.06
2017-02-01T04:18:48.990Z,21.06
2017-02-01T04:19:08.769Z,21.06
2017-02-01T04:19:29.198Z,21.08
2017-02-01T04:19:49.596Z,20.99
2017-02-01T04:20:09.361Z,20.98
2017-02-01T04:20:29.786Z,20.94
2017-02-01T04:20:50.169Z,20.99
2017-02-01T04:21:09.947Z,20.84
2017-02-01T04:21:30.338Z,20.84
2017-02-01T04:21:50.756Z,20.79
2017-02-01T04:22:10.532Z,20.79
2017-02-01T04:22:30.952Z,20.8
2017-02-01T04:22:51.318Z,20.72